sensor_id;sensor_type;location;lat;lon;timestamp;P1;durP1;ratioP1;P2;durP2;ratioP2
13090;SDS011;6611;52.604;13.438;2024-03-06T00:03:50;27.00;;;17.07;;
13090;SDS011;6611;52.604;13.438;2024-03-06T00:08:53;26.53;;;16.50;;
13090;SDS011;6611;52.604;13.438;2024-03-06T00:13:55;25.90;;;16.73;;
13090;SDS011;6611;52.604;13.438;2024-03-06T00:18:57;24.33;;;15.60;;
13090;SDS011;6611;52.604;13.438;2024-03-06T00:24:00;25.23;;;15.60;;
13090;SDS011;6611;52.604;13.438;2024-03-06T00:29:02;22.83;;;14.97;;
13090;SDS011;6611;52.604;13.438;2024-03-06T00:34:03;21.30;;;14.97;;
13090;SDS011;6611;52.604;13.438;2024-03-06T00:39:07;22.00;;;14.73;;
13090;SDS011;6611;52.604;13.438;2024-03-06T00:44:09;20.90;;;14.50;;
13090;SDS011;6611;52.604;13.438;2024-03-06T00:49:10;20.43;;;14.10;;
13090;SDS011;6611;52.604;13.438;2024-03-06T00:54:13;19.00;;;14.00;;
13090;SDS011;6611;52.604;13.438;2024-03-06T00:59:15;23.33;;;13.97;;
13090;SDS011;6611;52.604;13.438;2024-03-06T01:04:17;19.73;;;13.33;;
13090;SDS011;6611;52.604;13.438;2024-03-06T01:09:20;20.30;;;12.20;;
13090;SDS011;6611;52.604;13.438;2024-03-06T01:14:23;20.47;;;12.97;;
13090;SDS011;6611;52.604;13.438;2024-03-06T01:19:24;18.73;;;13.23;;
13090;SDS011;6611;52.604;13.438;2024-03-06T01:24:27;18.00;;;12.70;;
13090;SDS011;6611;52.604;13.438;2024-03-06T01:29:29;20.13;;;13.20;;
13090;SDS011;6611;52.604;13.438;2024-03-06T01:34:31;18.13;;;12.07;;
13090;SDS011;6611;52.604;13.438;2024-03-06T01:39:34;16.40;;;11.77;;
13090;SDS011;6611;52.604;13.438;2024-03-06T01:44:36;18.00;;;12.07;;
13090;SDS011;6611;52.604;13.438;2024-03-06T01:49:38;18.20;;;11.97;;
13090;SDS011;6611;52.604;13.438;2024-03-06T01:54:42;17.10;;;11.60;;
13090;SDS011;6611;52.604;13.438;2024-03-06T01:59:45;19.13;;;12.00;;
13090;SDS011;6611;52.604;13.438;2024-03-06T02:04:47;18.43;;;12.43;;
13090;SDS011;6611;52.604;13.438;2024-03-06T02:09:50;15.73;;;10.97;;
13090;SDS011;6611;52.604;13.438;2024-03-06T02:14:52;16.00;;;11.97;;
13090;SDS011;6611;52.604;13.438;2024-03-06T02:19:54;18.53;;;11.80;;
13090;SDS011;6611;52.604;13.438;2024-03-06T02:24:57;17.70;;;11.83;;
13090;SDS011;6611;52.604;13.438;2024-03-06T02:29:58;18.50;;;12.63;;
13090;SDS011;6611;52.604;13.438;2024-03-06T02:35:03;18.60;;;12.13;;
13090;SDS011;6611;52.604;13.438;2024-03-06T02:40:09;18.80;;;12.17;;
13090;SDS011;6611;52.604;13.438;2024-03-06T02:45:11;17.47;;;11.97;;
13090;SDS011;6611;52.604;13.438;2024-03-06T02:50:13;21.03;;;13.63;;
13090;SDS011;6611;52.604;13.438;2024-03-06T02:55:17;17.83;;;12.17;;
13090;SDS011;6611;52.604;13.438;2024-03-06T03:00:18;20.90;;;12.27;;
13090;SDS011;6611;52.604;13.438;2024-03-06T03:05:20;18.13;;;11.97;;
13090;SDS011;6611;52.604;13.438;2024-03-06T03:10:23;18.53;;;12.20;;
13090;SDS011;6611;52.604;13.438;2024-03-06T03:15:25;18.87;;;12.20;;
13090;SDS011;6611;52.604;13.438;2024-03-06T03:20:27;17.77;;;12.37;;
13090;SDS011;6611;52.604;13.438;2024-03-06T03:25:30;17.63;;;12.00;;
13090;SDS011;6611;52.604;13.438;2024-03-06T03:30:32;18.97;;;11.73;;
13090;SDS011;6611;52.604;13.438;2024-03-06T03:35:33;17.93;;;11.87;;
13090;SDS011;6611;52.604;13.438;2024-03-06T03:40:37;17.23;;;11.30;;
13090;SDS011;6611;52.604;13.438;2024-03-06T03:45:38;17.67;;;11.63;;
13090;SDS011;6611;52.604;13.438;2024-03-06T03:50:40;18.50;;;11.57;;
13090;SDS011;6611;52.604;13.438;2024-03-06T03:55:44;17.37;;;11.20;;
13090;SDS011;6611;52.604;13.438;2024-03-06T04:00:45;17.40;;;11.20;;
13090;SDS011;6611;52.604;13.438;2024-03-06T04:05:48;18.70;;;11.30;;
13090;SDS011;6611;52.604;13.438;2024-03-06T04:10:51;20.13;;;12.07;;
13090;SDS011;6611;52.604;13.438;2024-03-06T04:15:52;16.77;;;11.70;;
13090;SDS011;6611;52.604;13.438;2024-03-06T04:20:54;17.20;;;10.73;;
13090;SDS011;6611;52.604;13.438;2024-03-06T04:25:57;18.20;;;11.37;;
13090;SDS011;6611;52.604;13.438;2024-03-06T04:30:59;14.87;;;10.20;;
13090;SDS011;6611;52.604;13.438;2024-03-06T04:36:01;14.37;;;10.33;;
13090;SDS011;6611;52.604;13.438;2024-03-06T04:41:06;15.43;;;10.23;;
13090;SDS011;6611;52.604;13.438;2024-03-06T04:46:12;16.80;;;10.30;;
13090;SDS011;6611;52.604;13.438;2024-03-06T04:51:13;15.53;;;10.13;;
13090;SDS011;6611;52.604;13.438;2024-03-06T04:56:16;16.00;;;10.53;;
13090;SDS011;6611;52.604;13.438;2024-03-06T05:01:20;18.70;;;10.53;;
13090;SDS011;6611;52.604;13.438;2024-03-06T05:06:22;17.53;;;10.43;;
13090;SDS011;6611;52.604;13.438;2024-03-06T05:11:25;15.07;;;10.17;;
13090;SDS011;6611;52.604;13.438;2024-03-06T05:16:29;19.27;;;10.47;;
13090;SDS011;6611;52.604;13.438;2024-03-06T05:21:31;15.87;;;10.80;;
13090;SDS011;6611;52.604;13.438;2024-03-06T05:26:36;16.80;;;10.73;;
13090;SDS011;6611;52.604;13.438;2024-03-06T05:31:38;18.13;;;10.87;;
13090;SDS011;6611;52.604;13.438;2024-03-06T05:36:41;17.20;;;11.37;;
13090;SDS011;6611;52.604;13.438;2024-03-06T05:41:44;17.50;;;9.70;;
13090;SDS011;6611;52.604;13.438;2024-03-06T05:46:46;18.60;;;10.80;;
13090;SDS011;6611;52.604;13.438;2024-03-06T05:51:48;16.57;;;10.40;;
13090;SDS011;6611;52.604;13.438;2024-03-06T05:56:51;13.47;;;9.17;;
13090;SDS011;6611;52.604;13.438;2024-03-06T06:01:56;15.17;;;10.47;;
13090;SDS011;6611;52.604;13.438;2024-03-06T06:06:58;15.90;;;9.90;;
13090;SDS011;6611;52.604;13.438;2024-03-06T06:12:01;14.57;;;9.50;;
13090;SDS011;6611;52.604;13.438;2024-03-06T06:17:03;18.67;;;10.53;;
13090;SDS011;6611;52.604;13.438;2024-03-06T06:22:05;17.93;;;11.30;;
13090;SDS011;6611;52.604;13.438;2024-03-06T06:27:07;17.20;;;11.03;;
13090;SDS011;6611;52.604;13.438;2024-03-06T06:32:09;18.30;;;11.53;;
13090;SDS011;6611;52.604;13.438;2024-03-06T06:37:11;15.57;;;11.60;;
13090;SDS011;6611;52.604;13.438;2024-03-06T06:42:14;18.50;;;12.47;;
13090;SDS011;6611;52.604;13.438;2024-03-06T06:47:15;18.90;;;11.90;;
13090;SDS011;6611;52.604;13.438;2024-03-06T06:52:17;19.70;;;11.83;;
13090;SDS011;6611;52.604;13.438;2024-03-06T06:57:21;18.53;;;12.53;;
13090;SDS011;6611;52.604;13.438;2024-03-06T07:02:22;18.43;;;12.83;;
13090;SDS011;6611;52.604;13.438;2024-03-06T07:07:24;19.63;;;12.00;;
13090;SDS011;6611;52.604;13.438;2024-03-06T07:12:27;18.67;;;12.53;;
13090;SDS011;6611;52.604;13.438;2024-03-06T07:17:29;17.83;;;11.57;;
13090;SDS011;6611;52.604;13.438;2024-03-06T07:22:31;20.03;;;12.67;;
13090;SDS011;6611;52.604;13.438;2024-03-06T07:27:35;15.10;;;10.77;;
13090;SDS011;6611;52.604;13.438;2024-03-06T07:32:37;17.37;;;12.40;;
13090;SDS011;6611;52.604;13.438;2024-03-06T07:37:38;15.37;;;11.33;;
13090;SDS011;6611;52.604;13.438;2024-03-06T07:42:41;14.33;;;11.37;;
13090;SDS011;6611;52.604;13.438;2024-03-06T07:47:43;17.20;;;10.97;;
13090;SDS011;6611;52.604;13.438;2024-03-06T07:52:45;14.30;;;10.70;;
13090;SDS011;6611;52.604;13.438;2024-03-06T07:57:48;15.43;;;10.50;;
13090;SDS011;6611;52.604;13.438;2024-03-06T08:02:50;14.73;;;10.03;;
13090;SDS011;6611;52.604;13.438;2024-03-06T08:07:51;14.67;;;10.30;;
13090;SDS011;6611;52.604;13.438;2024-03-06T08:12:55;14.13;;;9.57;;
13090;SDS011;6611;52.604;13.438;2024-03-06T08:17:56;12.53;;;9.00;;
13090;SDS011;6611;52.604;13.438;2024-03-06T08:22:58;10.53;;;7.73;;
13090;SDS011;6611;52.604;13.438;2024-03-06T08:28:01;11.63;;;8.47;;
13090;SDS011;6611;52.604;13.438;2024-03-06T08:33:06;9.97;;;7.60;;
13090;SDS011;6611;52.604;13.438;2024-03-06T08:38:08;8.33;;;5.50;;
13090;SDS011;6611;52.604;13.438;2024-03-06T08:43:11;9.37;;;5.47;;
13090;SDS011;6611;52.604;13.438;2024-03-06T08:48:15;8.37;;;6.17;;
13090;SDS011;6611;52.604;13.438;2024-03-06T08:53:17;9.33;;;6.37;;
13090;SDS011;6611;52.604;13.438;2024-03-06T08:58:20;7.53;;;5.90;;
13090;SDS011;6611;52.604;13.438;2024-03-06T09:03:21;7.70;;;6.33;;
13090;SDS011;6611;52.604;13.438;2024-03-06T09:08:24;8.93;;;6.10;;
13090;SDS011;6611;52.604;13.438;2024-03-06T09:13:27;8.40;;;6.23;;
13090;SDS011;6611;52.604;13.438;2024-03-06T09:18:28;9.47;;;6.13;;
13090;SDS011;6611;52.604;13.438;2024-03-06T09:23:30;9.20;;;6.37;;
13090;SDS011;6611;52.604;13.438;2024-03-06T09:28:34;6.80;;;5.90;;
13090;SDS011;6611;52.604;13.438;2024-03-06T09:33:36;10.97;;;7.40;;
13090;SDS011;6611;52.604;13.438;2024-03-06T09:38:41;8.97;;;6.87;;
13090;SDS011;6611;52.604;13.438;2024-03-06T09:43:44;11.60;;;7.03;;
13090;SDS011;6611;52.604;13.438;2024-03-06T09:48:47;10.93;;;6.63;;
13090;SDS011;6611;52.604;13.438;2024-03-06T09:53:51;9.83;;;7.60;;
13090;SDS011;6611;52.604;13.438;2024-03-06T09:58:55;9.07;;;6.90;;
13090;SDS011;6611;52.604;13.438;2024-03-06T10:03:56;10.23;;;7.73;;
13090;SDS011;6611;52.604;13.438;2024-03-06T10:09:03;9.77;;;7.63;;
13090;SDS011;6611;52.604;13.438;2024-03-06T10:14:09;10.37;;;7.27;;
13090;SDS011;6611;52.604;13.438;2024-03-06T10:19:15;12.27;;;8.30;;
13090;SDS011;6611;52.604;13.438;2024-03-06T10:24:18;14.07;;;9.93;;
13090;SDS011;6611;52.604;13.438;2024-03-06T10:29:22;15.73;;;10.93;;
13090;SDS011;6611;52.604;13.438;2024-03-06T10:34:25;13.70;;;10.43;;
13090;SDS011;6611;52.604;13.438;2024-03-06T10:39:27;13.77;;;9.83;;
13090;SDS011;6611;52.604;13.438;2024-03-06T10:44:32;14.00;;;10.43;;
13090;SDS011;6611;52.604;13.438;2024-03-06T10:49:36;15.97;;;10.87;;
13090;SDS011;6611;52.604;13.438;2024-03-06T10:54:41;16.43;;;11.50;;
13090;SDS011;6611;52.604;13.438;2024-03-06T10:59:47;14.13;;;10.37;;
13090;SDS011;6611;52.604;13.438;2024-03-06T11:04:49;15.23;;;10.57;;
13090;SDS011;6611;52.604;13.438;2024-03-06T11:09:52;15.93;;;11.50;;
13090;SDS011;6611;52.604;13.438;2024-03-06T11:14:55;22.93;;;13.73;;
13090;SDS011;6611;52.604;13.438;2024-03-06T11:20:13;18.30;;;10.73;;
13090;SDS011;6611;52.604;13.438;2024-03-06T11:30:58;9.73;;;7.60;;
13090;SDS011;6611;52.604;13.438;2024-03-06T11:36:17;11.77;;;7.30;;
13090;SDS011;6611;52.604;13.438;2024-03-06T11:41:20;10.43;;;7.60;;
13090;SDS011;6611;52.604;13.438;2024-03-06T11:51:53;9.77;;;7.40;;
13090;SDS011;6611;52.604;13.438;2024-03-06T11:56:56;10.40;;;6.93;;
13090;SDS011;6611;52.604;13.438;2024-03-06T12:02:03;9.37;;;7.40;;
13090;SDS011;6611;52.604;13.438;2024-03-06T12:07:07;8.63;;;6.50;;
13090;SDS011;6611;52.604;13.438;2024-03-06T12:12:09;8.00;;;6.00;;
13090;SDS011;6611;52.604;13.438;2024-03-06T12:17:11;7.13;;;5.77;;
13090;SDS011;6611;52.604;13.438;2024-03-06T12:22:17;9.37;;;6.23;;
13090;SDS011;6611;52.604;13.438;2024-03-06T12:27:21;12.07;;;8.57;;
13090;SDS011;6611;52.604;13.438;2024-03-06T12:32:23;16.00;;;10.50;;
13090;SDS011;6611;52.604;13.438;2024-03-06T12:37:31;14.87;;;10.00;;
13090;SDS011;6611;52.604;13.438;2024-03-06T12:42:33;11.67;;;8.43;;
13090;SDS011;6611;52.604;13.438;2024-03-06T12:47:35;12.10;;;9.10;;
13090;SDS011;6611;52.604;13.438;2024-03-06T12:52:38;12.80;;;9.67;;
13090;SDS011;6611;52.604;13.438;2024-03-06T12:57:45;19.43;;;10.47;;
13090;SDS011;6611;52.604;13.438;2024-03-06T13:02:49;18.73;;;11.27;;
13090;SDS011;6611;52.604;13.438;2024-03-06T13:07:53;16.97;;;9.50;;
13090;SDS011;6611;52.604;13.438;2024-03-06T13:12:54;15.60;;;9.93;;
13090;SDS011;6611;52.604;13.438;2024-03-06T13:17:56;17.33;;;9.47;;
13090;SDS011;6611;52.604;13.438;2024-03-06T13:22:59;17.47;;;10.10;;
13090;SDS011;6611;52.604;13.438;2024-03-06T13:28:01;16.27;;;8.40;;
13090;SDS011;6611;52.604;13.438;2024-03-06T13:33:03;11.60;;;7.83;;
13090;SDS011;6611;52.604;13.438;2024-03-06T13:38:06;15.77;;;8.67;;
13090;SDS011;6611;52.604;13.438;2024-03-06T13:43:08;15.10;;;8.70;;
13090;SDS011;6611;52.604;13.438;2024-03-06T13:48:13;18.90;;;8.83;;
13090;SDS011;6611;52.604;13.438;2024-03-06T13:53:17;15.00;;;8.47;;
13090;SDS011;6611;52.604;13.438;2024-03-06T13:58:19;17.80;;;10.07;;
13090;SDS011;6611;52.604;13.438;2024-03-06T14:03:21;20.80;;;10.77;;
13090;SDS011;6611;52.604;13.438;2024-03-06T14:08:24;24.90;;;12.27;;
13090;SDS011;6611;52.604;13.438;2024-03-06T14:13:26;31.03;;;15.63;;
13090;SDS011;6611;52.604;13.438;2024-03-06T14:18:27;22.53;;;13.53;;
13090;SDS011;6611;52.604;13.438;2024-03-06T14:23:30;23.27;;;12.83;;
13090;SDS011;6611;52.604;13.438;2024-03-06T14:28:32;18.47;;;10.60;;
13090;SDS011;6611;52.604;13.438;2024-03-06T14:33:33;17.33;;;10.57;;
13090;SDS011;6611;52.604;13.438;2024-03-06T14:38:38;15.87;;;10.03;;
13090;SDS011;6611;52.604;13.438;2024-03-06T14:43:40;14.30;;;9.13;;
13090;SDS011;6611;52.604;13.438;2024-03-06T14:48:42;19.47;;;11.37;;
13090;SDS011;6611;52.604;13.438;2024-03-06T14:53:46;20.00;;;12.37;;
13090;SDS011;6611;52.604;13.438;2024-03-06T14:58:47;20.57;;;11.80;;
13090;SDS011;6611;52.604;13.438;2024-03-06T15:03:49;20.50;;;11.20;;
13090;SDS011;6611;52.604;13.438;2024-03-06T15:08:52;19.13;;;11.67;;
13090;SDS011;6611;52.604;13.438;2024-03-06T15:13:54;18.53;;;11.43;;
13090;SDS011;6611;52.604;13.438;2024-03-06T15:18:55;21.17;;;12.13;;
13090;SDS011;6611;52.604;13.438;2024-03-06T15:23:58;16.83;;;10.90;;
13090;SDS011;6611;52.604;13.438;2024-03-06T15:29:00;17.40;;;10.63;;
13090;SDS011;6611;52.604;13.438;2024-03-06T15:34:04;12.77;;;9.40;;
13090;SDS011;6611;52.604;13.438;2024-03-06T15:39:08;11.70;;;8.93;;
13090;SDS011;6611;52.604;13.438;2024-03-06T15:44:09;12.70;;;8.70;;
13090;SDS011;6611;52.604;13.438;2024-03-06T15:49:18;14.80;;;9.50;;
13090;SDS011;6611;52.604;13.438;2024-03-06T15:54:22;12.43;;;8.87;;
13090;SDS011;6611;52.604;13.438;2024-03-06T15:59:24;12.67;;;8.80;;
13090;SDS011;6611;52.604;13.438;2024-03-06T16:04:28;10.63;;;7.53;;
13090;SDS011;6611;52.604;13.438;2024-03-06T16:09:31;10.80;;;8.30;;
13090;SDS011;6611;52.604;13.438;2024-03-06T16:14:33;10.03;;;8.33;;
13090;SDS011;6611;52.604;13.438;2024-03-06T16:19:35;12.03;;;8.57;;
13090;SDS011;6611;52.604;13.438;2024-03-06T16:24:38;11.07;;;8.70;;
13090;SDS011;6611;52.604;13.438;2024-03-06T16:29:40;10.57;;;8.57;;
13090;SDS011;6611;52.604;13.438;2024-03-06T16:34:42;10.30;;;7.63;;
13090;SDS011;6611;52.604;13.438;2024-03-06T16:39:45;12.20;;;8.67;;
13090;SDS011;6611;52.604;13.438;2024-03-06T16:44:47;10.47;;;8.53;;
13090;SDS011;6611;52.604;13.438;2024-03-06T16:49:49;11.23;;;9.20;;
13090;SDS011;6611;52.604;13.438;2024-03-06T16:54:52;11.20;;;9.03;;
13090;SDS011;6611;52.604;13.438;2024-03-06T16:59:54;12.40;;;9.43;;
13090;SDS011;6611;52.604;13.438;2024-03-06T17:04:55;11.53;;;8.63;;
13090;SDS011;6611;52.604;13.438;2024-03-06T17:09:58;12.63;;;9.70;;
13090;SDS011;6611;52.604;13.438;2024-03-06T17:15:01;11.67;;;8.77;;
13090;SDS011;6611;52.604;13.438;2024-03-06T17:20:02;11.97;;;9.27;;
13090;SDS011;6611;52.604;13.438;2024-03-06T17:25:06;13.10;;;9.27;;
13090;SDS011;6611;52.604;13.438;2024-03-06T17:30:10;11.60;;;9.03;;
13090;SDS011;6611;52.604;13.438;2024-03-06T17:35:15;12.47;;;9.60;;
13090;SDS011;6611;52.604;13.438;2024-03-06T17:40:18;12.53;;;9.33;;
13090;SDS011;6611;52.604;13.438;2024-03-06T17:45:20;12.03;;;9.13;;
13090;SDS011;6611;52.604;13.438;2024-03-06T17:50:21;12.60;;;10.30;;
13090;SDS011;6611;52.604;13.438;2024-03-06T17:55:25;12.87;;;9.93;;
13090;SDS011;6611;52.604;13.438;2024-03-06T18:00:27;13.17;;;10.40;;
13090;SDS011;6611;52.604;13.438;2024-03-06T18:05:29;12.63;;;9.97;;
13090;SDS011;6611;52.604;13.438;2024-03-06T18:10:32;14.10;;;10.33;;
13090;SDS011;6611;52.604;13.438;2024-03-06T18:15:33;12.40;;;9.53;;
13090;SDS011;6611;52.604;13.438;2024-03-06T18:20:35;13.93;;;10.20;;
13090;SDS011;6611;52.604;13.438;2024-03-06T18:25:38;13.77;;;10.17;;
13090;SDS011;6611;52.604;13.438;2024-03-06T18:30:40;11.80;;;9.67;;
13090;SDS011;6611;52.604;13.438;2024-03-06T18:35:42;13.23;;;10.30;;
13090;SDS011;6611;52.604;13.438;2024-03-06T18:40:45;13.97;;;10.33;;
13090;SDS011;6611;52.604;13.438;2024-03-06T18:45:47;14.70;;;11.20;;
13090;SDS011;6611;52.604;13.438;2024-03-06T18:50:48;14.10;;;11.27;;
13090;SDS011;6611;52.604;13.438;2024-03-06T18:55:52;13.47;;;11.23;;
13090;SDS011;6611;52.604;13.438;2024-03-06T19:00:54;12.70;;;10.90;;
13090;SDS011;6611;52.604;13.438;2024-03-06T19:05:55;14.80;;;11.70;;
13090;SDS011;6611;52.604;13.438;2024-03-06T19:10:58;15.13;;;12.10;;
13090;SDS011;6611;52.604;13.438;2024-03-06T19:16:00;18.10;;;12.30;;
13090;SDS011;6611;52.604;13.438;2024-03-06T19:21:02;18.57;;;14.27;;
13090;SDS011;6611;52.604;13.438;2024-03-06T19:26:05;25.10;;;15.60;;
13090;SDS011;6611;52.604;13.438;2024-03-06T19:31:07;23.43;;;16.43;;
13090;SDS011;6611;52.604;13.438;2024-03-06T19:36:08;24.90;;;15.93;;
13090;SDS011;6611;52.604;13.438;2024-03-06T19:41:11;26.47;;;17.20;;
13090;SDS011;6611;52.604;13.438;2024-03-06T19:46:13;19.20;;;14.67;;
13090;SDS011;6611;52.604;13.438;2024-03-06T19:51:15;19.73;;;13.07;;
13090;SDS011;6611;52.604;13.438;2024-03-06T19:56:18;22.13;;;14.97;;
13090;SDS011;6611;52.604;13.438;2024-03-06T20:01:20;24.70;;;15.50;;
13090;SDS011;6611;52.604;13.438;2024-03-06T20:06:22;23.17;;;16.10;;
13090;SDS011;6611;52.604;13.438;2024-03-06T20:11:28;25.10;;;16.20;;
13090;SDS011;6611;52.604;13.438;2024-03-06T20:16:29;26.80;;;16.50;;
13090;SDS011;6611;52.604;13.438;2024-03-06T20:21:31;28.83;;;18.30;;
13090;SDS011;6611;52.604;13.438;2024-03-06T20:26:34;31.03;;;19.87;;
13090;SDS011;6611;52.604;13.438;2024-03-06T20:31:40;32.80;;;19.70;;
13090;SDS011;6611;52.604;13.438;2024-03-06T20:36:42;34.33;;;19.60;;
13090;SDS011;6611;52.604;13.438;2024-03-06T20:41:45;39.03;;;20.53;;
13090;SDS011;6611;52.604;13.438;2024-03-06T20:46:48;36.77;;;20.33;;
13090;SDS011;6611;52.604;13.438;2024-03-06T20:51:49;44.23;;;21.70;;
13090;SDS011;6611;52.604;13.438;2024-03-06T20:56:52;43.67;;;23.37;;
13090;SDS011;6611;52.604;13.438;2024-03-06T21:01:54;43.83;;;23.37;;
13090;SDS011;6611;52.604;13.438;2024-03-06T21:06:55;41.20;;;22.67;;
13090;SDS011;6611;52.604;13.438;2024-03-06T21:11:59;41.87;;;23.77;;
13090;SDS011;6611;52.604;13.438;2024-03-06T21:17:00;40.73;;;23.53;;
13090;SDS011;6611;52.604;13.438;2024-03-06T21:22:02;43.07;;;23.27;;
13090;SDS011;6611;52.604;13.438;2024-03-06T21:27:07;48.00;;;22.97;;
13090;SDS011;6611;52.604;13.438;2024-03-06T21:32:08;41.90;;;22.00;;
13090;SDS011;6611;52.604;13.438;2024-03-06T21:37:12;43.13;;;22.17;;
13090;SDS011;6611;52.604;13.438;2024-03-06T21:42:15;40.87;;;23.10;;
13090;SDS011;6611;52.604;13.438;2024-03-06T21:47:17;40.50;;;22.93;;
13090;SDS011;6611;52.604;13.438;2024-03-06T21:52:19;40.47;;;22.67;;
13090;SDS011;6611;52.604;13.438;2024-03-06T21:57:22;50.77;;;24.73;;
13090;SDS011;6611;52.604;13.438;2024-03-06T22:02:23;48.63;;;24.50;;
13090;SDS011;6611;52.604;13.438;2024-03-06T22:07:25;52.70;;;25.53;;
13090;SDS011;6611;52.604;13.438;2024-03-06T22:12:28;55.30;;;27.03;;
13090;SDS011;6611;52.604;13.438;2024-03-06T22:17:30;61.13;;;26.90;;
13090;SDS011;6611;52.604;13.438;2024-03-06T22:22:32;55.87;;;26.43;;
13090;SDS011;6611;52.604;13.438;2024-03-06T22:27:35;60.97;;;26.20;;
13090;SDS011;6611;52.604;13.438;2024-03-06T22:32:38;62.33;;;25.60;;
13090;SDS011;6611;52.604;13.438;2024-03-06T22:37:40;54.67;;;26.07;;
13090;SDS011;6611;52.604;13.438;2024-03-06T22:42:43;63.80;;;26.07;;
13090;SDS011;6611;52.604;13.438;2024-03-06T22:47:45;67.73;;;27.60;;
13090;SDS011;6611;52.604;13.438;2024-03-06T22:52:46;69.93;;;28.73;;
13090;SDS011;6611;52.604;13.438;2024-03-06T22:57:49;63.87;;;27.37;;
13090;SDS011;6611;52.604;13.438;2024-03-06T23:02:51;66.70;;;26.47;;
13090;SDS011;6611;52.604;13.438;2024-03-06T23:07:53;66.57;;;29.77;;
13090;SDS011;6611;52.604;13.438;2024-03-06T23:12:56;72.53;;;29.50;;
13090;SDS011;6611;52.604;13.438;2024-03-06T23:17:58;75.00;;;29.50;;
13090;SDS011;6611;52.604;13.438;2024-03-06T23:23:00;70.67;;;28.53;;
13090;SDS011;6611;52.604;13.438;2024-03-06T23:28:03;71.60;;;29.07;;
13090;SDS011;6611;52.604;13.438;2024-03-06T23:33:05;70.67;;;30.13;;
13090;SDS011;6611;52.604;13.438;2024-03-06T23:38:07;71.83;;;29.50;;
13090;SDS011;6611;52.604;13.438;2024-03-06T23:43:10;72.27;;;27.57;;
13090;SDS011;6611;52.604;13.438;2024-03-06T23:48:12;71.67;;;27.73;;
13090;SDS011;6611;52.604;13.438;2024-03-06T23:53:14;76.57;;;29.47;;
13090;SDS011;6611;52.604;13.438;2024-03-06T23:58:17;65.77;;;28.27;;
